Time;durP1;ratioP1;P1;durP2;ratioP2;P2;SDS_P1;SDS_P2;PMS_P1;PMS_P2;Temp;Humidity;BMP_temperature;BMP_pressure;BME280_temperature;BME280_humidity;BME280_pressure;Samples;Min_cycle;Max_cycle;Signal;HPM_P1;HPM_P2
2023/06/27 00:01:48;;;;;;;6.65;2.38;;;;;;;17.85;63.67;101242.03;4981624;28;20195;-48
2023/06/27 00:04:19;;;;;;;8.32;2.25;;;;;;;17.82;64.10;101237.19;4995860;28;20064;-48
2023/06/27 00:06:46;;;;;;;5.57;1.83;;;;;;;17.84;64.30;101231.22;4999114;28;20510;-46
2023/06/27 00:09:15;;;;;;;6.95;1.90;;;;;;;17.82;64.21;101228.78;5000734;28;20049;-48
2023/06/27 00:11:41;;;;;;;5.22;1.83;;;;;;;17.77;64.35;101220.72;5001646;28;21754;-49
2023/06/27 00:14:09;;;;;;;9.02;1.77;;;;;;;17.76;64.29;101223.91;5001066;28;20049;-49
2023/06/27 00:16:38;;;;;;;8.48;1.75;;;;;;;17.74;64.42;101220.69;5000169;28;20692;-46
2023/06/27 00:19:05;;;;;;;11.00;1.98;;;;;;;17.73;64.66;101207.88;4999701;28;20053;-47
2023/06/27 00:21:33;;;;;;;13.05;2.38;;;;;;;17.74;64.55;101201.88;5001102;28;20034;-47
2023/06/27 00:24:01;;;;;;;6.97;2.20;;;;;;;17.72;64.69;101195.03;5000590;28;20050;-45
2023/06/27 00:26:28;;;;;;;9.02;2.95;;;;;;;17.68;64.70;101208.22;5000151;28;20521;-45
2023/06/27 00:28:56;;;;;;;6.38;1.88;;;;;;;17.68;64.72;101199.81;5000109;28;20148;-45
2023/06/27 00:31:23;;;;;;;8.80;3.03;;;;;;;17.69;65.01;101195.81;5000921;28;20441;-49
2023/06/27 00:33:50;;;;;;;7.38;1.98;;;;;;;17.67;64.96;101189.78;5001113;28;20068;-48
2023/06/27 00:36:16;;;;;;;10.43;3.17;;;;;;;17.63;65.00;101192.56;5000806;28;20046;-50
2023/06/27 00:38:43;;;;;;;9.13;1.90;;;;;;;17.64;65.14;101194.97;5000600;28;20593;-50
2023/06/27 00:41:10;;;;;;;6.45;2.63;;;;;;;17.66;65.06;101185.41;5001290;28;20057;-46
2023/06/27 00:43:37;;;;;;;6.30;1.98;;;;;;;17.63;65.18;101190.56;5000163;28;20041;-48
2023/06/27 00:46:06;;;;;;;9.90;2.00;;;;;;;17.64;65.08;101194.97;5000869;28;20048;-51
2023/06/27 00:48:34;;;;;;;7.57;1.80;;;;;;;17.64;65.23;101194.97;4999774;28;20057;-47
2023/06/27 00:51:03;;;;;;;6.20;1.90;;;;;;;17.67;65.11;101196.19;5000710;28;20167;-45
2023/06/27 00:53:30;;;;;;;4.15;2.15;;;;;;;17.68;65.22;101200.63;5000665;28;20049;-46
2023/06/27 00:55:57;;;;;;;6.60;2.05;;;;;;;17.64;65.34;101192.19;4977649;28;20060;-50
2023/06/27 00:58:25;;;;;;;11.50;2.17;;;;;;;17.65;65.37;101190.19;5000007;28;20041;-46
2023/06/27 01:00:54;;;;;;;15.23;3.30;;;;;;;17.64;65.46;101197.78;5000547;28;20052;-49
2023/06/27 01:03:20;;;;;;;6.22;1.67;;;;;;;17.64;65.38;101202.56;5000236;28;21821;-52
2023/06/27 01:05:48;;;;;;;3.40;1.83;;;;;;;17.64;65.52;101208.97;5000803;28;20085;-50
2023/06/27 01:08:35;;;;;;;5.55;1.88;;;;;;;17.64;65.58;101205.38;4999261;28;20048;-50
2023/06/27 01:11:14;;;;;;;11.48;2.50;;;;;;;17.66;65.59;101208.59;5003128;28;20036;-46
2023/06/27 01:13:52;;;;;;;5.40;1.83;;;;;;;17.62;65.59;101208.56;5002419;28;20084;-45
2023/06/27 01:16:26;;;;;;;5.85;1.67;;;;;;;17.60;65.69;101202.53;5001907;28;20053;-47
2023/06/27 01:18:54;;;;;;;4.90;1.35;;;;;;;17.56;65.52;101198.88;5000370;28;20069;-46
2023/06/27 01:21:25;;;;;;;7.72;2.55;;;;;;;17.53;65.55;101188.44;5012271;28;20499;-45
2023/06/27 01:23:59;;;;;;;8.50;2.35;;;;;;;17.48;65.80;101177.56;5033495;28;20080;-46
2023/06/27 01:26:28;;;;;;;4.85;1.83;;;;;;;17.47;65.85;101191.94;5030181;28;20223;-46
2023/06/27 01:28:55;;;;;;;5.15;1.80;;;;;;;17.45;65.85;101188.69;5013300;28;20106;-47
2023/06/27 01:31:49;;;;;;;7.15;1.85;;;;;;;17.46;65.87;101191.13;5033360;28;20042;-48
2023/06/27 01:34:18;;;;;;;3.70;2.05;;;;;;;17.46;65.78;101184.72;5033178;28;20136;-45
2023/06/27 01:36:59;;;;;;;6.15;2.08;;;;;;;17.43;65.86;101177.88;5032805;28;20045;-46
2023/06/27 01:39:51;;;;;;;4.60;1.80;;;;;;;17.41;66.05;101165.47;5031406;28;20053;-45
2023/06/27 01:42:18;;;;;;;;;;;;;;;17.36;66.05;101149.00;5008463;28;20057;-45
2023/06/27 01:44:47;;;;;;;5.40;2.10;;;;;;;17.33;65.96;101153.38;5030682;28;19968;-48
2023/06/27 01:47:15;;;;;;;4.85;1.63;;;;;;;17.30;66.05;101156.94;5031091;28;20387;-47
2023/06/27 01:49:42;;;;;;;10.43;2.65;;;;;;;17.31;65.97;101152.97;5032716;28;20060;-45
2023/06/27 01:52:13;;;;;;;7.40;1.75;;;;;;;17.28;66.29;101145.31;5032718;28;20076;-45
2023/06/27 01:54:41;;;;;;;5.03;1.88;;;;;;;17.26;66.23;101133.69;5030423;28;20053;-45
2023/06/27 01:57:08;;;;;;;5.10;3.00;;;;;;;17.25;66.42;101134.88;5032210;28;20045;-45
2023/06/27 01:59:35;;;;;;;7.05;1.90;;;;;;;17.26;66.53;101136.47;5026606;28;20785;-50
2023/06/27 02:02:02;;;;;;;6.15;2.33;;;;;;;17.26;66.64;101128.09;5029517;28;20136;-45
2023/06/27 02:04:29;;;;;;;9.13;2.33;;;;;;;17.24;66.63;101129.66;5031476;28;20045;-45
2023/06/27 02:06:56;;;;;;;8.52;1.92;;;;;;;17.22;66.62;101135.63;5031808;28;20080;-45
2023/06/27 02:09:23;;;;;;;6.13;2.20;;;;;;;17.20;66.80;101124.03;5025530;28;20547;-45
2023/06/27 02:11:50;;;;;;;7.35;1.58;;;;;;;17.16;66.82;101123.16;4996015;28;20053;-46
2023/06/27 02:14:16;;;;;;;5.38;2.40;;;;;;;17.15;66.88;101129.97;5030583;28;20406;-45
2023/06/27 02:16:43;;;;;;;9.32;2.90;;;;;;;17.15;66.85;101115.97;5031132;28;20048;-45
2023/06/27 02:19:10;;;;;;;5.35;1.65;;;;;;;17.15;67.01;101124.38;5023635;28;20414;-45
2023/06/27 02:21:37;;;;;;;4.20;1.98;;;;;;;17.13;67.01;101118.31;5032345;28;20053;-45
2023/06/27 02:24:05;;;;;;;4.65;2.00;;;;;;;17.12;66.97;101127.94;5031021;28;20049;-45
2023/06/27 02:26:32;;;;;;;5.22;1.80;;;;;;;17.10;67.30;101124.72;5031507;28;20061;-45
2023/06/27 02:28:58;;;;;;;7.13;2.20;;;;;;;17.10;67.29;101116.31;5030309;28;20049;-44
2023/06/27 02:31:25;;;;;;;4.13;2.17;;;;;;;17.10;67.39;101119.13;5029756;28;20095;-45
2023/06/27 02:33:52;;;;;;;5.65;2.55;;;;;;;17.10;67.34;101115.50;5029128;28;20068;-46
2023/06/27 02:36:19;;;;;;;9.65;2.42;;;;;;;17.09;67.34;101117.50;5029383;28;20183;-46
2023/06/27 02:38:45;;;;;;;9.68;2.17;;;;;;;17.09;67.53;101120.28;5014599;28;20049;-44
2023/06/27 02:41:12;;;;;;;9.02;1.95;;;;;;;17.06;67.44;101121.03;5029726;28;20116;-46
2023/06/27 02:43:39;;;;;;;3.60;1.80;;;;;;;17.07;67.60;101107.88;5022293;28;20049;-45
2023/06/27 02:46:06;;;;;;;8.95;2.30;;;;;;;17.06;67.63;101107.06;5028790;28;20057;-45
2023/06/27 02:48:33;;;;;;;7.80;2.83;;;;;;;17.06;67.81;101101.47;5030485;28;20072;-45
2023/06/27 02:50:59;;;;;;;7.60;1.80;;;;;;;17.05;67.72;101105.44;5029809;28;20522;-45
2023/06/27 02:53:27;;;;;;;7.53;2.22;;;;;;;17.03;67.99;101102.22;5028463;28;20491;-45
2023/06/27 02:55:53;;;;;;;6.15;1.75;;;;;;;17.05;68.12;101102.63;5030053;28;20042;-45
2023/06/27 02:58:20;;;;;;;6.38;2.42;;;;;;;17.04;68.43;101098.25;5028947;28;20042;-46
2023/06/27 03:00:47;;;;;;;3.47;1.80;;;;;;;17.02;68.60;101098.59;5110061;22;20062;-45
2023/06/27 03:03:13;;;;;;;6.72;2.75;;;;;;;17.01;68.75;101093.41;5080687;22;20114;-45
2023/06/27 03:05:40;;;;;;;7.80;2.03;;;;;;;16.96;68.87;101086.16;5070139;28;20044;-45
2023/06/27 03:08:07;;;;;;;9.52;2.60;;;;;;;16.95;69.16;101078.94;5052931;28;20073;-45
2023/06/27 03:10:35;;;;;;;11.75;2.30;;;;;;;16.92;69.60;101085.28;5071343;28;20053;-46
2023/06/27 03:13:02;;;;;;;10.00;2.20;;;;;;;16.91;69.95;101077.28;5071053;28;20131;-47
2023/06/27 03:15:29;;;;;;;9.95;3.08;;;;;;;16.87;70.16;101077.25;5070482;28;20091;-50
2023/06/27 03:17:55;;;;;;;7.18;2.33;;;;;;;16.83;70.39;101070.00;5065132;28;20053;-44
2023/06/27 03:20:22;;;;;;;7.40;2.25;;;;;;;16.80;70.59;101054.78;5070362;28;20044;-45
2023/06/27 03:22:49;;;;;;;9.15;2.80;;;;;;;16.79;70.95;101052.34;5068025;28;20102;-44
2023/06/27 03:25:16;;;;;;;9.43;2.65;;;;;;;16.78;71.13;101048.78;5063249;28;20053;-45
2023/06/27 03:27:42;;;;;;;6.90;2.72;;;;;;;16.76;71.21;101045.53;5071264;28;20041;-45
2023/06/27 03:30:10;;;;;;;4.97;2.20;;;;;;;16.72;71.46;101058.69;5071158;28;20050;-44
2023/06/27 03:32:37;;;;;;;11.85;2.45;;;;;;;16.69;71.40;101053.03;5070989;28;20174;-46
2023/06/27 03:35:04;;;;;;;6.45;2.25;;;;;;;16.68;71.63;101052.22;5070164;28;20122;-45
2023/06/27 03:37:31;;;;;;;6.18;2.17;;;;;;;16.68;71.83;101046.63;5052966;28;20041;-46
2023/06/27 03:39:58;;;;;;;6.03;2.25;;;;;;;16.67;72.01;101041.41;5070560;28;20048;-45
2023/06/27 03:42:24;;;;;;;7.20;2.38;;;;;;;16.63;71.97;101044.16;5070063;28;20064;-46
2023/06/27 03:44:51;;;;;;;7.50;3.15;;;;;;;16.62;71.92;101044.56;5069978;28;20059;-46
2023/06/27 03:47:18;;;;;;;5.55;2.45;;;;;;;16.61;71.99;101045.72;5070872;28;20098;-44
2023/06/27 03:49:46;;;;;;;8.40;2.60;;;;;;;16.61;72.09;101040.13;5069219;28;20052;-45
2023/06/27 03:52:12;;;;;;;7.70;2.33;;;;;;;16.59;72.15;101037.72;5065720;28;20082;-45
2023/06/27 03:54:43;;;;;;;7.35;2.53;;;;;;;16.60;72.21;101044.91;5069577;28;20130;-44
2023/06/27 03:57:12;;;;;;;7.22;2.47;;;;;;;16.61;72.41;101037.34;5070602;28;20037;-44
2023/06/27 03:59:39;;;;;;;7.25;2.67;;;;;;;16.61;72.41;101040.13;5070211;28;20093;-46
2023/06/27 04:02:06;;;;;;;13.50;4.10;;;;;;;16.60;72.38;101030.94;5052234;28;20494;-46
2023/06/27 04:04:32;;;;;;;12.88;3.13;;;;;;;16.60;72.63;101035.75;5069777;28;20101;-47
2023/06/27 04:06:59;;;;;;;7.50;2.40;;;;;;;16.60;72.73;101027.34;5070659;28;20098;-44
2023/06/27 04:09:26;;;;;;;6.10;2.60;;;;;;;16.57;72.91;101023.34;5070803;28;20071;-46
2023/06/27 04:11:53;;;;;;;6.40;2.20;;;;;;;16.55;73.05;101019.31;5071113;28;20094;-47
2023/06/27 04:14:20;;;;;;;6.20;2.75;;;;;;;16.51;73.12;101030.41;5068103;28;20131;-45
2023/06/27 04:16:47;;;;;;;8.63;2.88;;;;;;;16.50;73.24;101014.81;5061313;28;20068;-45
2023/06/27 04:19:14;;;;;;;12.70;2.50;;;;;;;16.51;73.27;101015.63;5065513;28;20060;-46
2023/06/27 04:21:40;;;;;;;8.05;2.40;;;;;;;16.42;73.41;101010.28;5050387;28;20044;-46
2023/06/27 04:24:07;;;;;;;4.32;2.08;;;;;;;16.41;73.58;101015.06;5068200;28;20142;-47
2023/06/27 04:26:35;;;;;;;3.97;1.80;;;;;;;16.40;73.67;101013.47;5069022;28;20660;-48
2023/06/27 04:29:02;;;;;;;6.93;2.17;;;;;;;16.33;73.58;101010.59;5067065;28;20041;-45
2023/06/27 04:31:29;;;;;;;4.47;2.10;;;;;;;16.30;73.85;101014.16;5066046;28;20068;-45
2023/06/27 04:33:59;;;;;;;6.63;2.22;;;;;;;16.27;73.86;101012.09;5066709;28;20045;-47
2023/06/27 04:36:27;;;;;;;5.07;2.30;;;;;;;16.26;74.16;101001.28;5066986;28;20063;-45
2023/06/27 04:38:54;;;;;;;3.88;1.90;;;;;;;16.25;74.34;100997.72;5066544;28;20083;-44
2023/06/27 04:41:20;;;;;;;5.72;2.30;;;;;;;16.26;74.46;101002.09;5067671;28;20032;-44
2023/06/27 04:43:47;;;;;;;6.45;2.40;;;;;;;16.26;74.58;101010.47;5068393;28;20045;-45
2023/06/27 04:46:14;;;;;;;3.83;2.03;;;;;;;16.27;74.73;100998.13;5067715;28;20044;-45
2023/06/27 04:48:40;;;;;;;4.78;1.83;;;;;;;16.28;75.01;100994.13;5069362;28;20632;-44
2023/06/27 04:51:07;;;;;;;5.32;2.22;;;;;;;16.28;75.06;100994.13;5064883;28;20078;-45
2023/06/27 04:53:34;;;;;;;5.93;2.28;;;;;;;16.30;75.37;100994.59;5070189;28;20044;-47
2023/06/27 04:56:02;;;;;;;8.52;2.30;;;;;;;16.32;75.24;100997.81;5066098;28;20052;-45
2023/06/27 04:58:28;;;;;;;7.18;2.15;;;;;;;16.32;75.44;100995.00;5069760;28;20440;-46
2023/06/27 05:00:55;;;;;;;5.80;2.28;;;;;;;16.34;75.69;100997.41;5058006;28;20107;-44
2023/06/27 05:03:22;;;;;;;8.45;2.80;;;;;;;16.36;75.71;100995.06;5063344;28;20076;-45
2023/06/27 05:05:49;;;;;;;5.03;2.10;;;;;;;16.37;75.83;100993.88;5072938;28;20469;-45
2023/06/27 05:08:16;;;;;;;4.32;2.10;;;;;;;16.37;76.09;100986.28;5071498;28;20509;-45
2023/06/27 05:10:43;;;;;;;8.88;2.42;;;;;;;16.38;76.18;100987.09;5073816;28;20040;-44
2023/06/27 05:13:15;;;;;;;5.82;2.42;;;;;;;16.37;76.25;100982.69;5073615;28;20049;-45
2023/06/27 05:15:42;;;;;;;3.75;2.17;;;;;;;16.35;76.28;100985.06;5072779;28;20068;-46
2023/06/27 05:18:14;;;;;;;5.97;2.08;;;;;;;16.33;76.52;100988.25;5055634;28;20870;-44
2023/06/27 05:20:42;;;;;;;4.95;2.10;;;;;;;16.34;76.57;100975.88;5066675;28;20055;-46
2023/06/27 05:23:09;;;;;;;6.88;2.58;;;;;;;16.35;76.71;100980.28;5069461;28;20052;-47
2023/06/27 05:25:36;;;;;;;4.85;2.67;;;;;;;16.36;76.96;100967.13;5071601;28;20109;-45
2023/06/27 05:28:04;;;;;;;13.80;2.97;;;;;;;16.39;76.99;100966.34;5073169;28;20032;-45
2023/06/27 05:30:32;;;;;;;6.57;2.95;;;;;;;16.43;77.18;100967.22;5073604;28;20040;-44
2023/06/27 05:33:01;;;;;;;6.15;2.15;;;;;;;16.42;77.19;100957.19;5073217;28;20047;-47
2023/06/27 05:35:28;;;;;;;4.85;2.50;;;;;;;16.44;77.41;100968.81;5072236;28;20446;-44
2023/06/27 05:37:55;;;;;;;9.70;2.60;;;;;;;16.47;77.52;100973.63;5073050;28;20505;-44
2023/06/27 05:40:21;;;;;;;5.28;2.22;;;;;;;16.47;77.73;100968.03;5073358;28;20053;-46
2023/06/27 05:42:49;;;;;;;5.30;3.25;;;;;;;16.47;77.82;100970.06;5059654;28;20413;-44
2023/06/27 05:45:16;;;;;;;4.60;1.95;;;;;;;16.50;77.55;100955.28;5071832;28;20052;-45
2023/06/27 05:47:44;;;;;;;7.43;1.73;;;;;;;16.52;78.20;100964.13;5056008;28;20076;-45
2023/06/27 05:50:11;;;;;;;2.88;2.00;;;;;;;16.54;78.15;100950.59;5072869;28;20128;-44
2023/06/27 05:52:38;;;;;;;3.90;2.10;;;;;;;16.57;78.50;100944.25;5072501;28;20139;-46
2023/06/27 05:55:06;;;;;;;5.35;2.25;;;;;;;16.58;78.64;100940.25;5072615;28;20045;-49
2023/06/27 05:57:33;;;;;;;6.35;2.47;;;;;;;16.60;78.89;100946.28;5072259;28;20044;-45
2023/06/27 05:59:59;;;;;;;6.32;2.33;;;;;;;16.62;79.17;100935.53;5072091;28;20037;-45
2023/06/27 06:02:26;;;;;;;6.43;2.22;;;;;;;16.65;79.21;100929.19;5072452;28;20509;-45
2023/06/27 06:04:54;;;;;;;2.80;1.88;;;;;;;16.68;79.35;100928.41;5071727;28;20048;-45
2023/06/27 06:07:21;;;;;;;6.70;1.83;;;;;;;16.72;79.40;100923.66;5052235;28;20048;-45
2023/06/27 06:09:47;;;;;;;3.92;1.90;;;;;;;16.75;79.49;100923.72;5072689;28;20044;-46
2023/06/27 06:12:14;;;;;;;5.47;1.90;;;;;;;16.80;79.78;100919.75;5059710;28;20040;-47
2023/06/27 06:14:41;;;;;;;6.45;2.28;;;;;;;16.84;79.98;100912.19;5071559;28;20044;-45
2023/06/27 06:17:07;;;;;;;5.18;2.90;;;;;;;16.90;80.00;100914.28;5066917;28;20037;-44
2023/06/27 06:19:34;;;;;;;5.65;2.38;;;;;;;16.96;79.97;100915.53;5070380;28;20589;-48
2023/06/27 06:22:01;;;;;;;5.75;2.10;;;;;;;17.00;80.03;100907.16;5062850;28;20490;-45
2023/06/27 06:24:27;;;;;;;6.03;2.20;;;;;;;17.07;80.19;100918.44;5069821;28;20456;-44
2023/06/27 06:26:54;;;;;;;9.30;3.50;;;;;;;17.11;80.35;100919.28;5069630;28;20040;-45
2023/06/27 06:29:21;;;;;;;7.28;3.13;;;;;;;17.14;80.41;100904.53;5065961;28;20449;-45
2023/06/27 06:31:47;;;;;;;8.07;2.42;;;;;;;17.17;80.52;100912.16;5063842;28;20090;-44
2023/06/27 06:34:14;;;;;;;5.78;3.40;;;;;;;17.20;80.53;100904.97;5067968;28;20399;-44
2023/06/27 06:36:41;;;;;;;8.20;3.22;;;;;;;17.25;80.65;100902.63;5068858;28;20044;-46
2023/06/27 06:39:08;;;;;;;11.00;3.13;;;;;;;17.25;80.83;100910.22;5064970;28;20486;-44
2023/06/27 06:41:34;;;;;;;4.38;2.72;;;;;;;17.25;80.90;100915.81;5065597;28;20102;-45
2023/06/27 06:44:01;;;;;;;5.93;2.83;;;;;;;17.25;81.13;100908.22;5071701;28;20577;-46
2023/06/27 06:46:28;;;;;;;7.55;3.17;;;;;;;17.27;81.20;100900.25;5070047;28;20131;-48
2023/06/27 06:48:54;;;;;;;7.47;3.05;;;;;;;17.29;81.26;100909.03;5070682;28;20143;-45
2023/06/27 06:51:23;;;;;;;6.45;4.25;;;;;;;17.28;81.39;100901.84;5071782;28;20402;-47
2023/06/27 06:53:49;;;;;;;7.43;3.63;;;;;;;17.29;81.55;100908.25;5071574;28;20055;-45
2023/06/27 06:56:16;;;;;;;6.30;3.10;;;;;;;17.28;81.62;100901.84;5071067;28;20040;-45
2023/06/27 06:58:43;;;;;;;5.38;3.40;;;;;;;17.26;81.88;100912.59;5071484;28;20040;-45
2023/06/27 07:01:12;;;;;;;5.40;3.65;;;;;;;17.25;82.01;100911.03;5074620;28;20497;-46
2023/06/27 07:03:39;;;;;;;11.18;3.80;;;;;;;17.26;82.01;100915.41;5065527;28;20121;-46
2023/06/27 07:06:06;;;;;;;8.07;4.03;;;;;;;17.26;82.22;100915.41;5060574;28;20045;-46
2023/06/27 07:08:34;;;;;;;12.05;4.25;;;;;;;17.28;82.23;100917.84;5061073;28;20097;-47
2023/06/27 07:11:00;;;;;;;7.63;4.32;;;;;;;17.29;82.29;100903.44;5068706;28;20043;-45
2023/06/27 07:13:27;;;;;;;15.07;5.03;;;;;;;17.33;82.55;100911.88;5067368;28;20106;-48
2023/06/27 07:15:54;;;;;;;14.70;5.00;;;;;;;17.35;82.43;100896.31;5067532;28;20083;-47
2023/06/27 07:18:20;;;;;;;9.77;5.28;;;;;;;17.38;82.69;100895.53;5069123;28;20055;-46
2023/06/27 07:20:47;;;;;;;13.73;6.55;;;;;;;17.39;82.76;100899.97;5047196;28;20044;-45
2023/06/27 07:23:16;;;;;;;14.35;5.93;;;;;;;17.42;82.59;100899.16;5067847;28;20125;-46
2023/06/27 07:25:42;;;;;;;16.38;5.45;;;;;;;17.45;82.55;100889.97;5068135;28;20129;-47
2023/06/27 07:28:09;;;;;;;15.95;6.20;;;;;;;17.47;82.75;100893.19;5069842;28;20045;-47
2023/06/27 07:30:36;;;;;;;13.68;4.85;;;;;;;17.51;82.86;100893.22;5067354;28;20056;-46
2023/06/27 07:33:03;;;;;;;15.25;6.07;;;;;;;17.54;82.91;100893.31;5069683;28;20083;-46
2023/06/27 07:35:30;;;;;;;10.85;5.43;;;;;;;17.59;82.97;100892.13;5069824;28;20115;-45
2023/06/27 07:37:57;;;;;;;18.50;6.55;;;;;;;17.67;83.04;100884.56;5070873;28;20139;-47
2023/06/27 07:40:23;;;;;;;12.07;5.78;;;;;;;17.74;82.80;100887.44;5063717;28;20097;-46
2023/06/27 07:42:50;;;;;;;11.07;5.20;;;;;;;17.77;82.92;100886.63;5067941;28;20041;-47
2023/06/27 07:45:17;;;;;;;14.95;6.30;;;;;;;17.78;82.75;100885.44;5069717;28;20053;-47
2023/06/27 07:47:44;;;;;;;11.80;6.03;;;;;;;17.81;82.85;100879.06;5069240;28;20036;-49
2023/06/27 07:50:10;;;;;;;16.20;6.97;;;;;;;17.88;83.04;100879.91;5068778;28;20135;-45
2023/06/27 07:52:37;;;;;;;14.40;6.60;;;;;;;17.94;82.87;100881.16;5069424;28;20558;-46
2023/06/27 07:55:04;;;;;;;13.90;7.15;;;;;;;17.99;83.07;100869.56;5041344;28;20052;-47
2023/06/27 07:57:31;;;;;;;19.70;8.10;;;;;;;18.02;82.91;100882.81;5067244;28;20754;-45
2023/06/27 07:59:58;;;;;;;23.58;8.52;;;;;;;18.06;82.87;100885.59;5064219;28;20076;-46
2023/06/27 08:02:25;;;;;;;19.15;8.27;;;;;;;18.13;82.97;100874.44;5064062;28;20402;-47
2023/06/27 08:04:52;;;;;;;14.43;7.97;;;;;;;18.20;82.90;100877.28;5069569;28;20052;-45
2023/06/27 08:07:19;;;;;;;14.65;7.63;;;;;;;18.26;82.83;100870.09;5066872;28;20048;-45
2023/06/27 08:09:46;;;;;;;15.40;7.85;;;;;;;18.32;82.75;100870.53;5065354;28;20139;-46
2023/06/27 08:12:13;;;;;;;22.20;8.05;;;;;;;18.39;82.81;100876.97;5044667;28;20710;-47
2023/06/27 08:14:42;;;;;;;14.57;8.60;;;;;;;18.43;82.52;100860.94;5067609;28;20040;-46
2023/06/27 08:17:09;;;;;;;14.70;7.65;;;;;;;18.50;82.50;100855.41;5065533;28;20517;-46
2023/06/27 08:19:35;;;;;;;15.15;8.55;;;;;;;18.59;82.51;100864.22;5066712;28;20908;-46
2023/06/27 08:22:02;;;;;;;20.17;9.50;;;;;;;18.68;82.25;100861.06;5065159;28;20036;-46
2023/06/27 08:24:29;;;;;;;15.98;7.60;;;;;;;18.72;82.29;100862.66;5041567;28;20454;-45
2023/06/27 08:26:56;;;;;;;18.00;8.18;;;;;;;18.76;82.01;100860.69;5070782;28;20090;-46
2023/06/27 08:29:24;;;;;;;15.88;7.88;;;;;;;18.78;82.16;100858.28;5068256;28;20140;-45
2023/06/27 08:31:54;;;;;;;14.82;7.75;;;;;;;18.82;81.87;100844.25;5070844;28;20473;-46
2023/06/27 08:34:20;;;;;;;14.07;8.32;;;;;;;18.88;81.88;100836.25;5072298;28;20510;-45
2023/06/27 08:36:47;;;;;;;15.25;7.90;;;;;;;18.94;81.99;100843.06;5071141;28;20098;-45
2023/06/27 08:39:14;;;;;;;18.48;7.60;;;;;;;19.09;81.36;100850.31;5071527;28;20041;-45
2023/06/27 08:41:41;;;;;;;18.85;9.18;;;;;;;19.23;81.51;100837.06;5065955;28;20486;-46
2023/06/27 08:44:07;;;;;;;22.77;10.55;;;;;;;19.31;80.95;100833.03;5069787;28;20048;-47
2023/06/27 08:46:35;;;;;;;16.00;9.18;;;;;;;19.36;80.86;100837.44;5053614;28;20048;-45
2023/06/27 08:49:03;;;;;;;21.45;9.85;;;;;;;19.34;81.07;100837.03;5063268;28;20052;-45
2023/06/27 08:51:30;;;;;;;22.27;9.75;;;;;;;19.30;80.88;100831.44;5071017;28;20048;-45
2023/06/27 08:54:20;;;;;;;18.23;10.35;;;;;;;19.21;80.95;100838.66;5072951;28;20037;-46
2023/06/27 08:56:47;;;;;;;22.13;10.52;;;;;;;19.14;81.42;100842.25;5070184;28;20056;-47
2023/06/27 08:59:19;;;;;;;21.08;10.80;;;;;;;19.12;81.78;100841.06;5069842;28;20151;-45
2023/06/27 09:01:47;;;;;;;24.20;12.32;;;;;;;19.10;81.31;100835.84;5070934;28;20048;-49
2023/06/27 09:04:15;;;;;;;23.40;11.70;;;;;;;19.07;81.22;100833.03;5068620;28;20142;-46
2023/06/27 09:06:42;;;;;;;27.17;13.25;;;;;;;19.08;81.59;100831.84;5071432;28;20052;-47
2023/06/27 09:09:11;;;;;;;22.55;11.75;;;;;;;19.09;81.29;100830.66;5068399;28;20127;-43
2023/06/27 09:11:39;;;;;;;25.95;12.82;;;;;;;19.09;81.34;100831.44;5069567;28;20097;-43
2023/06/27 09:14:05;;;;;;;29.70;14.23;;;;;;;19.09;81.21;100836.28;5051119;28;20136;-43
2023/06/27 09:16:33;;;;;;;23.95;12.98;;;;;;;19.11;81.38;100834.66;5071410;28;20048;-44
2023/06/27 09:19:00;;;;;;;24.20;13.18;;;;;;;19.16;81.62;100830.66;5070709;28;20094;-45
2023/06/27 09:21:31;;;;;;;22.85;12.63;;;;;;;19.21;81.44;100830.25;5055238;28;20080;-44
2023/06/27 09:24:04;;;;;;;24.63;12.93;;;;;;;19.25;81.22;100834.63;5050867;28;20049;-44
2023/06/27 09:26:31;;;;;;;21.13;11.00;;;;;;;19.32;80.94;100840.28;5068959;28;20040;-44
2023/06/27 09:29:00;;;;;;;20.73;11.93;;;;;;;19.40;80.83;100843.91;5073181;28;20048;-46
2023/06/27 09:31:28;;;;;;;23.23;10.25;;;;;;;19.45;80.94;100837.88;5068893;28;20106;-46
2023/06/27 09:34:11;;;;;;;21.20;10.82;;;;;;;19.45;80.65;100837.88;5069545;28;20494;-47
2023/06/27 09:36:40;;;;;;;13.95;8.95;;;;;;;19.42;80.80;100841.47;5064176;28;20079;-45
2023/06/27 09:39:12;;;;;;;16.42;9.07;;;;;;;19.35;80.54;100828.22;5063210;28;20047;-46
2023/06/27 09:41:47;;;;;;;16.13;9.68;;;;;;;19.32;80.63;100828.22;5069495;28;20510;-44
2023/06/27 09:44:19;;;;;;;15.45;9.15;;;;;;;19.28;80.58;100831.03;5052154;28;20056;-45
2023/06/27 09:46:48;;;;;;;17.23;9.40;;;;;;;19.32;80.72;100834.66;5070139;28;20037;-45
2023/06/27 09:49:16;;;;;;;17.80;9.18;;;;;;;19.40;80.83;100824.25;5070158;28;20056;-45
2023/06/27 09:51:45;;;;;;;21.38;9.05;;;;;;;19.48;80.61;100823.03;5067708;28;20102;-47
2023/06/27 09:54:13;;;;;;;21.95;10.18;;;;;;;19.56;80.04;100824.63;5069667;28;20048;-45
2023/06/27 09:56:48;;;;;;;18.52;9.52;;;;;;;19.65;80.01;100825.00;5067868;28;20048;-44
2023/06/27 09:59:28;;;;;;;18.23;10.43;;;;;;;19.74;79.52;100825.38;5066870;28;20048;-46
2023/06/27 10:01:54;;;;;;;16.45;9.98;;;;;;;19.85;79.55;100822.53;5067163;28;20211;-45
2023/06/27 10:04:24;;;;;;;18.30;10.65;;;;;;;19.95;79.25;100828.13;5070084;28;20041;-45
2023/06/27 10:06:54;;;;;;;18.48;10.82;;;;;;;20.04;79.16;100827.69;5071848;28;20032;-45
2023/06/27 10:09:21;;;;;;;20.38;11.23;;;;;;;20.16;78.62;100826.44;5070835;28;20082;-46
2023/06/27 10:11:49;;;;;;;21.75;11.23;;;;;;;20.26;78.40;100819.97;5050741;28;20075;-44
2023/06/27 10:14:18;;;;;;;20.75;11.38;;;;;;;20.30;78.26;100826.41;5063662;28;20174;-44
2023/06/27 10:16:46;;;;;;;16.50;10.23;;;;;;;20.36;77.78;100828.34;5068398;28;20119;-45
2023/06/27 10:19:14;;;;;;;20.35;11.25;;;;;;;20.36;77.39;100827.59;5050900;28;20109;-45
2023/06/27 10:21:42;;;;;;;21.65;11.40;;;;;;;20.37;77.34;100820.72;5068126;28;20063;-48
2023/06/27 10:24:09;;;;;;;23.67;11.55;;;;;;;20.38;77.65;100823.16;5064934;28;20054;-49
2023/06/27 10:26:36;;;;;;;22.75;11.80;;;;;;;20.37;77.32;100821.53;5065313;28;20051;-47
2023/06/27 10:29:16;;;;;;;21.85;12.63;;;;;;;20.34;77.04;100813.09;5061787;28;20393;-47
2023/06/27 10:31:49;;;;;;;21.13;11.80;;;;;;;20.26;77.05;100812.34;5065726;28;20043;-47
2023/06/27 10:34:28;;;;;;;18.85;11.73;;;;;;;20.21;76.95;100809.13;5046749;28;20055;-46
2023/06/27 10:36:54;;;;;;;20.58;11.15;;;;;;;20.24;77.05;100811.16;5063460;28;20071;-45
2023/06/27 10:39:32;;;;;;;20.95;10.40;;;;;;;20.28;76.40;100809.16;5056580;28;20032;-45
2023/06/27 10:42:06;;;;;;;24.98;12.20;;;;;;;20.27;76.48;100801.91;5054235;28;20355;-44
2023/06/27 10:44:56;;;;;;;18.60;10.40;;;;;;;20.41;76.32;100804.66;5051407;28;20500;-46
2023/06/27 10:47:34;;;;;;;24.75;11.85;;;;;;;20.52;76.15;100799.75;5063342;28;20048;-47
2023/06/27 10:50:05;;;;;;;20.52;10.80;;;;;;;20.57;75.68;100793.72;5061394;28;20052;-45
2023/06/27 10:52:33;;;;;;;17.58;10.82;;;;;;;20.58;75.23;100792.47;5063399;28;20048;-46
2023/06/27 10:55:15;;;;;;;18.08;11.15;;;;;;;20.57;75.49;100788.09;5049259;28;20044;-45
2023/06/27 10:57:44;;;;;;;19.38;10.68;;;;;;;20.52;75.27;100792.09;5061305;28;20053;-45
2023/06/27 11:00:35;;;;;;;25.42;12.70;;;;;;;20.49;75.34;100794.97;5060204;28;20048;-45
2023/06/27 11:03:04;;;;;;;20.80;11.80;;;;;;;20.40;75.12;100786.16;5068156;28;20143;-49
2023/06/27 11:05:49;;;;;;;21.77;11.30;;;;;;;20.34;75.11;100801.84;5067407;28;20162;-46
2023/06/27 11:08:18;;;;;;;18.48;11.68;;;;;;;20.35;75.26;100789.41;5060840;28;20056;-47
2023/06/27 11:11:02;;;;;;;20.30;11.80;;;;;;;20.44;75.38;100799.00;5065353;28;20461;-45
2023/06/27 11:13:36;;;;;;;21.52;12.52;;;;;;;20.64;74.75;100807.72;5063895;28;20048;-45
2023/06/27 11:16:03;;;;;;;19.00;11.82;;;;;;;20.78;74.66;100804.81;5045655;28;20056;-45
2023/06/27 11:18:30;;;;;;;19.13;10.27;;;;;;;20.90;74.37;100821.19;5066579;28;20542;-45
2023/06/27 11:20:57;;;;;;;19.13;11.75;;;;;;;21.00;73.80;100802.59;5068094;28;20041;-48
2023/06/27 11:23:25;;;;;;;24.73;12.30;;;;;;;20.96;73.42;100797.03;5065813;28;20106;-45
2023/06/27 11:25:53;;;;;;;20.40;12.25;;;;;;;20.86;73.39;100803.56;5064426;28;20040;-44